sensor_id;sensor_type;location;lat;lon;timestamp;P1;durP1;ratioP1;P2;durP2;ratioP2
15295;SDS011;7749;49.964;7.890;2022-11-15T00:01:11;22.10;;;17.20;;
15295;SDS011;7749;49.964;7.890;2022-11-15T00:03:44;18.13;;;16.23;;
15295;SDS011;7749;49.964;7.890;2022-11-15T00:06:12;19.13;;;16.70;;
15295;SDS011;7749;49.964;7.890;2022-11-15T00:08:40;19.73;;;17.00;;
15295;SDS011;7749;49.964;7.890;2022-11-15T00:11:08;20.00;;;16.33;;
15295;SDS011;7749;49.964;7.890;2022-11-15T00:13:38;18.97;;;16.40;;
15295;SDS011;7749;49.964;7.890;2022-11-15T00:16:06;18.53;;;16.63;;
15295;SDS011;7749;49.964;7.890;2022-11-15T00:18:33;18.53;;;16.60;;
15295;SDS011;7749;49.964;7.890;2022-11-15T00:21:05;19.00;;;16.37;;
15295;SDS011;7749;49.964;7.890;2022-11-15T00:23:39;20.13;;;17.47;;
15295;SDS011;7749;49.964;7.890;2022-11-15T00:26:09;18.83;;;16.37;;
15295;SDS011;7749;49.964;7.890;2022-11-15T00:28:39;19.63;;;16.43;;
15295;SDS011;7749;49.964;7.890;2022-11-15T00:31:09;19.60;;;15.90;;
15295;SDS011;7749;49.964;7.890;2022-11-15T00:33:39;19.03;;;16.37;;
15295;SDS011;7749;49.964;7.890;2022-11-15T00:36:09;18.20;;;16.27;;
15295;SDS011;7749;49.964;7.890;2022-11-15T00:38:38;21.23;;;17.13;;
15295;SDS011;7749;49.964;7.890;2022-11-15T00:41:07;18.50;;;16.57;;
15295;SDS011;7749;49.964;7.890;2022-11-15T00:43:36;19.40;;;15.67;;
15295;SDS011;7749;49.964;7.890;2022-11-15T00:46:04;18.33;;;15.70;;
15295;SDS011;7749;49.964;7.890;2022-11-15T00:48:31;18.70;;;14.67;;
15295;SDS011;7749;49.964;7.890;2022-11-15T00:50:59;19.07;;;15.73;;
15295;SDS011;7749;49.964;7.890;2022-11-15T00:53:27;17.17;;;15.13;;
15295;SDS011;7749;49.964;7.890;2022-11-15T00:55:55;17.07;;;15.27;;
15295;SDS011;7749;49.964;7.890;2022-11-15T00:58:23;17.83;;;14.37;;
15295;SDS011;7749;49.964;7.890;2022-11-15T01:00:50;17.20;;;13.30;;
15295;SDS011;7749;49.964;7.890;2022-11-15T01:03:18;18.60;;;14.00;;
15295;SDS011;7749;49.964;7.890;2022-11-15T01:05:45;16.93;;;14.50;;
15295;SDS011;7749;49.964;7.890;2022-11-15T01:08:13;15.20;;;13.60;;
15295;SDS011;7749;49.964;7.890;2022-11-15T01:10:42;16.50;;;14.60;;
15295;SDS011;7749;49.964;7.890;2022-11-15T01:13:10;16.20;;;14.17;;
15295;SDS011;7749;49.964;7.890;2022-11-15T01:15:41;17.70;;;15.80;;
15295;SDS011;7749;49.964;7.890;2022-11-15T01:18:08;22.87;;;16.43;;
15295;SDS011;7749;49.964;7.890;2022-11-15T01:20:40;18.53;;;15.83;;
15295;SDS011;7749;49.964;7.890;2022-11-15T01:23:09;17.17;;;14.90;;
15295;SDS011;7749;49.964;7.890;2022-11-15T01:25:37;16.10;;;14.37;;
15295;SDS011;7749;49.964;7.890;2022-11-15T01:28:04;29.80;;;21.50;;
15295;SDS011;7749;49.964;7.890;2022-11-15T01:30:32;33.77;;;22.73;;
15295;SDS011;7749;49.964;7.890;2022-11-15T01:33:00;45.93;;;31.00;;
15295;SDS011;7749;49.964;7.890;2022-11-15T01:35:27;17.40;;;15.27;;
15295;SDS011;7749;49.964;7.890;2022-11-15T01:37:55;18.47;;;15.57;;
15295;SDS011;7749;49.964;7.890;2022-11-15T01:40:22;17.77;;;14.73;;
15295;SDS011;7749;49.964;7.890;2022-11-15T01:42:50;17.33;;;15.30;;
15295;SDS011;7749;49.964;7.890;2022-11-15T01:45:18;19.93;;;14.87;;
15295;SDS011;7749;49.964;7.890;2022-11-15T01:47:46;21.93;;;17.70;;
15295;SDS011;7749;49.964;7.890;2022-11-15T01:50:20;20.43;;;17.23;;
15295;SDS011;7749;49.964;7.890;2022-11-15T01:52:52;20.83;;;16.40;;
15295;SDS011;7749;49.964;7.890;2022-11-15T01:55:21;20.83;;;16.43;;
15295;SDS011;7749;49.964;7.890;2022-11-15T01:57:53;20.07;;;16.97;;
15295;SDS011;7749;49.964;7.890;2022-11-15T02:00:24;18.60;;;15.97;;
15295;SDS011;7749;49.964;7.890;2022-11-15T02:02:51;21.03;;;15.70;;
15295;SDS011;7749;49.964;7.890;2022-11-15T02:05:19;18.60;;;14.63;;
15295;SDS011;7749;49.964;7.890;2022-11-15T02:07:46;19.17;;;15.33;;
15295;SDS011;7749;49.964;7.890;2022-11-15T02:10:19;18.50;;;14.80;;
15295;SDS011;7749;49.964;7.890;2022-11-15T02:12:49;19.17;;;15.23;;
15295;SDS011;7749;49.964;7.890;2022-11-15T02:15:17;24.50;;;20.80;;
15295;SDS011;7749;49.964;7.890;2022-11-15T02:37:23;14.40;;;12.90;;
15295;SDS011;7749;49.964;7.890;2022-11-15T02:42:36;16.40;;;13.37;;
15295;SDS011;7749;49.964;7.890;2022-11-15T02:45:39;14.90;;;13.20;;
15295;SDS011;7749;49.964;7.890;2022-11-15T02:48:11;16.37;;;13.80;;
15295;SDS011;7749;49.964;7.890;2022-11-15T02:50:39;15.60;;;13.83;;
15295;SDS011;7749;49.964;7.890;2022-11-15T02:53:07;15.43;;;12.87;;
15295;SDS011;7749;49.964;7.890;2022-11-15T02:55:46;16.50;;;14.10;;
15295;SDS011;7749;49.964;7.890;2022-11-15T03:00:57;17.03;;;13.93;;
15295;SDS011;7749;49.964;7.890;2022-11-15T03:03:42;15.20;;;13.17;;
15295;SDS011;7749;49.964;7.890;2022-11-15T03:06:55;18.77;;;13.80;;
15295;SDS011;7749;49.964;7.890;2022-11-15T03:09:35;19.00;;;13.47;;
15295;SDS011;7749;49.964;7.890;2022-11-15T03:12:23;17.73;;;14.50;;
15295;SDS011;7749;49.964;7.890;2022-11-15T03:15:01;16.80;;;14.67;;
15295;SDS011;7749;49.964;7.890;2022-11-15T03:17:57;15.30;;;13.70;;
15295;SDS011;7749;49.964;7.890;2022-11-15T03:20:50;17.47;;;14.77;;
15295;SDS011;7749;49.964;7.890;2022-11-15T03:23:17;17.63;;;13.17;;
15295;SDS011;7749;49.964;7.890;2022-11-15T03:25:46;15.33;;;13.73;;
15295;SDS011;7749;49.964;7.890;2022-11-15T03:28:19;16.97;;;13.57;;
15295;SDS011;7749;49.964;7.890;2022-11-15T03:30:52;15.87;;;13.50;;
15295;SDS011;7749;49.964;7.890;2022-11-15T03:33:22;14.70;;;13.10;;
15295;SDS011;7749;49.964;7.890;2022-11-15T03:35:50;19.53;;;13.83;;
15295;SDS011;7749;49.964;7.890;2022-11-15T03:38:26;14.63;;;13.13;;
15295;SDS011;7749;49.964;7.890;2022-11-15T03:41:00;16.53;;;13.77;;
15295;SDS011;7749;49.964;7.890;2022-11-15T03:46:28;18.17;;;14.00;;
15295;SDS011;7749;49.964;7.890;2022-11-15T03:52:02;17.33;;;14.67;;
15295;SDS011;7749;49.964;7.890;2022-11-15T03:54:30;16.13;;;14.27;;
15295;SDS011;7749;49.964;7.890;2022-11-15T03:56:58;18.70;;;14.40;;
15295;SDS011;7749;49.964;7.890;2022-11-15T03:59:26;18.60;;;14.50;;
15295;SDS011;7749;49.964;7.890;2022-11-15T04:01:53;18.40;;;14.03;;
15295;SDS011;7749;49.964;7.890;2022-11-15T04:04:21;18.17;;;14.77;;
15295;SDS011;7749;49.964;7.890;2022-11-15T04:06:49;18.27;;;15.90;;
15295;SDS011;7749;49.964;7.890;2022-11-15T04:09:16;24.03;;;21.53;;
15295;SDS011;7749;49.964;7.890;2022-11-15T04:11:44;19.77;;;16.40;;
15295;SDS011;7749;49.964;7.890;2022-11-15T04:14:12;20.23;;;16.53;;
15295;SDS011;7749;49.964;7.890;2022-11-15T04:16:39;21.10;;;17.40;;
15295;SDS011;7749;49.964;7.890;2022-11-15T04:19:10;20.57;;;15.83;;
15295;SDS011;7749;49.964;7.890;2022-11-15T04:21:56;19.27;;;16.03;;
15295;SDS011;7749;49.964;7.890;2022-11-15T04:24:42;22.30;;;15.93;;
15295;SDS011;7749;49.964;7.890;2022-11-15T04:27:10;18.90;;;15.47;;
15295;SDS011;7749;49.964;7.890;2022-11-15T04:29:39;19.07;;;15.73;;
15295;SDS011;7749;49.964;7.890;2022-11-15T04:32:07;19.23;;;15.67;;
15295;SDS011;7749;49.964;7.890;2022-11-15T04:34:35;20.57;;;14.97;;
15295;SDS011;7749;49.964;7.890;2022-11-15T04:37:02;21.43;;;16.00;;
15295;SDS011;7749;49.964;7.890;2022-11-15T04:39:39;19.20;;;15.47;;
15295;SDS011;7749;49.964;7.890;2022-11-15T04:42:08;19.77;;;15.23;;
15295;SDS011;7749;49.964;7.890;2022-11-15T04:44:36;18.20;;;14.40;;
15295;SDS011;7749;49.964;7.890;2022-11-15T04:47:04;19.30;;;15.57;;
15295;SDS011;7749;49.964;7.890;2022-11-15T04:49:32;17.20;;;14.27;;
15295;SDS011;7749;49.964;7.890;2022-11-15T04:51:59;18.40;;;14.60;;
15295;SDS011;7749;49.964;7.890;2022-11-15T04:54:27;17.07;;;13.50;;
15295;SDS011;7749;49.964;7.890;2022-11-15T04:56:55;18.70;;;13.73;;
15295;SDS011;7749;49.964;7.890;2022-11-15T04:59:22;15.70;;;13.10;;
15295;SDS011;7749;49.964;7.890;2022-11-15T05:01:50;14.50;;;12.93;;
15295;SDS011;7749;49.964;7.890;2022-11-15T05:04:17;18.13;;;13.30;;
15295;SDS011;7749;49.964;7.890;2022-11-15T05:06:49;17.00;;;14.10;;
15295;SDS011;7749;49.964;7.890;2022-11-15T05:09:18;15.07;;;13.30;;
15295;SDS011;7749;49.964;7.890;2022-11-15T05:11:47;18.13;;;14.43;;
15295;SDS011;7749;49.964;7.890;2022-11-15T05:14:15;15.80;;;13.60;;
15295;SDS011;7749;49.964;7.890;2022-11-15T05:16:43;16.20;;;13.33;;
15295;SDS011;7749;49.964;7.890;2022-11-15T05:19:11;15.80;;;14.10;;
15295;SDS011;7749;49.964;7.890;2022-11-15T05:21:38;17.00;;;13.43;;
15295;SDS011;7749;49.964;7.890;2022-11-15T05:24:06;17.30;;;13.63;;
15295;SDS011;7749;49.964;7.890;2022-11-15T05:26:36;17.53;;;13.43;;
15295;SDS011;7749;49.964;7.890;2022-11-15T05:29:04;18.40;;;13.80;;
15295;SDS011;7749;49.964;7.890;2022-11-15T05:31:32;20.30;;;13.53;;
15295;SDS011;7749;49.964;7.890;2022-11-15T05:34:00;17.07;;;13.83;;
15295;SDS011;7749;49.964;7.890;2022-11-15T05:36:35;14.50;;;12.80;;
15295;SDS011;7749;49.964;7.890;2022-11-15T05:39:04;15.10;;;13.03;;
15295;SDS011;7749;49.964;7.890;2022-11-15T05:44:09;15.03;;;13.43;;
15295;SDS011;7749;49.964;7.890;2022-11-15T05:46:38;16.67;;;12.83;;
15295;SDS011;7749;49.964;7.890;2022-11-15T05:49:10;14.87;;;13.20;;
15295;SDS011;7749;49.964;7.890;2022-11-15T05:51:40;15.33;;;11.70;;
15295;SDS011;7749;49.964;7.890;2022-11-15T05:54:09;13.67;;;11.77;;
15295;SDS011;7749;49.964;7.890;2022-11-15T05:56:37;15.83;;;12.57;;
15295;SDS011;7749;49.964;7.890;2022-11-15T05:59:06;14.83;;;12.17;;
15295;SDS011;7749;49.964;7.890;2022-11-15T06:01:35;13.93;;;12.50;;
15295;SDS011;7749;49.964;7.890;2022-11-15T06:04:02;14.57;;;13.07;;
15295;SDS011;7749;49.964;7.890;2022-11-15T06:06:30;15.10;;;13.57;;
15295;SDS011;7749;49.964;7.890;2022-11-15T06:08:58;15.10;;;13.27;;
15295;SDS011;7749;49.964;7.890;2022-11-15T06:11:25;14.70;;;12.93;;
15295;SDS011;7749;49.964;7.890;2022-11-15T06:13:53;14.13;;;12.63;;
15295;SDS011;7749;49.964;7.890;2022-11-15T06:16:21;20.73;;;13.40;;
15295;SDS011;7749;49.964;7.890;2022-11-15T06:18:49;15.00;;;12.43;;
15295;SDS011;7749;49.964;7.890;2022-11-15T06:21:16;18.33;;;13.33;;
15295;SDS011;7749;49.964;7.890;2022-11-15T06:23:44;14.00;;;12.07;;
15295;SDS011;7749;49.964;7.890;2022-11-15T06:26:11;15.37;;;12.40;;
15295;SDS011;7749;49.964;7.890;2022-11-15T06:28:39;18.20;;;13.10;;
15295;SDS011;7749;49.964;7.890;2022-11-15T06:31:07;17.70;;;12.87;;
15295;SDS011;7749;49.964;7.890;2022-11-15T06:33:38;15.20;;;12.47;;
15295;SDS011;7749;49.964;7.890;2022-11-15T06:36:07;15.40;;;13.47;;
15295;SDS011;7749;49.964;7.890;2022-11-15T06:38:44;18.73;;;14.10;;
15295;SDS011;7749;49.964;7.890;2022-11-15T06:41:12;17.10;;;13.43;;
15295;SDS011;7749;49.964;7.890;2022-11-15T06:43:41;14.90;;;13.40;;
15295;SDS011;7749;49.964;7.890;2022-11-15T06:46:08;16.60;;;13.30;;
15295;SDS011;7749;49.964;7.890;2022-11-15T06:48:36;14.17;;;12.50;;
15295;SDS011;7749;49.964;7.890;2022-11-15T06:51:04;14.37;;;12.73;;
15295;SDS011;7749;49.964;7.890;2022-11-15T06:53:32;15.17;;;12.47;;
15295;SDS011;7749;49.964;7.890;2022-11-15T06:56:00;16.30;;;12.93;;
15295;SDS011;7749;49.964;7.890;2022-11-15T06:58:29;15.77;;;13.33;;
15295;SDS011;7749;49.964;7.890;2022-11-15T07:00:59;15.37;;;13.67;;
15295;SDS011;7749;49.964;7.890;2022-11-15T07:03:34;17.57;;;14.60;;
15295;SDS011;7749;49.964;7.890;2022-11-15T07:06:03;15.80;;;13.93;;
15295;SDS011;7749;49.964;7.890;2022-11-15T07:08:36;17.57;;;15.67;;
15295;SDS011;7749;49.964;7.890;2022-11-15T07:11:05;15.93;;;13.10;;
15295;SDS011;7749;49.964;7.890;2022-11-15T07:13:35;15.77;;;14.13;;
15295;SDS011;7749;49.964;7.890;2022-11-15T07:16:07;17.83;;;15.93;;
15295;SDS011;7749;49.964;7.890;2022-11-15T07:18:38;18.97;;;15.27;;
15295;SDS011;7749;49.964;7.890;2022-11-15T07:21:07;16.60;;;14.30;;
15295;SDS011;7749;49.964;7.890;2022-11-15T07:23:37;15.30;;;13.83;;
15295;SDS011;7749;49.964;7.890;2022-11-15T07:26:05;17.97;;;13.50;;
15295;SDS011;7749;49.964;7.890;2022-11-15T07:28:34;15.73;;;13.30;;
15295;SDS011;7749;49.964;7.890;2022-11-15T07:31:05;17.40;;;14.60;;
15295;SDS011;7749;49.964;7.890;2022-11-15T07:33:35;17.03;;;13.40;;
15295;SDS011;7749;49.964;7.890;2022-11-15T07:36:03;16.70;;;13.70;;
15295;SDS011;7749;49.964;7.890;2022-11-15T07:38:33;18.33;;;13.77;;
15295;SDS011;7749;49.964;7.890;2022-11-15T07:41:08;14.47;;;12.87;;
15295;SDS011;7749;49.964;7.890;2022-11-15T07:43:36;16.43;;;13.13;;
15295;SDS011;7749;49.964;7.890;2022-11-15T07:46:05;14.67;;;13.07;;
15295;SDS011;7749;49.964;7.890;2022-11-15T07:48:36;17.83;;;13.50;;
15295;SDS011;7749;49.964;7.890;2022-11-15T07:51:11;20.00;;;13.00;;
15295;SDS011;7749;49.964;7.890;2022-11-15T07:53:41;14.53;;;13.13;;
15295;SDS011;7749;49.964;7.890;2022-11-15T07:56:10;14.40;;;12.57;;
15295;SDS011;7749;49.964;7.890;2022-11-15T07:58:38;15.20;;;13.23;;
15295;SDS011;7749;49.964;7.890;2022-11-15T08:01:06;18.27;;;15.50;;
15295;SDS011;7749;49.964;7.890;2022-11-15T08:03:36;15.97;;;13.60;;
15295;SDS011;7749;49.964;7.890;2022-11-15T08:06:04;15.23;;;12.70;;
15295;SDS011;7749;49.964;7.890;2022-11-15T08:08:32;17.37;;;14.13;;
15295;SDS011;7749;49.964;7.890;2022-11-15T08:11:00;14.57;;;13.07;;
15295;SDS011;7749;49.964;7.890;2022-11-15T08:13:27;17.40;;;13.73;;
15295;SDS011;7749;49.964;7.890;2022-11-15T08:15:59;16.03;;;13.40;;
15295;SDS011;7749;49.964;7.890;2022-11-15T08:18:27;16.40;;;13.47;;
15295;SDS011;7749;49.964;7.890;2022-11-15T08:20:58;16.63;;;13.70;;
15295;SDS011;7749;49.964;7.890;2022-11-15T08:23:27;16.87;;;13.53;;
15295;SDS011;7749;49.964;7.890;2022-11-15T08:25:59;15.20;;;12.70;;
15295;SDS011;7749;49.964;7.890;2022-11-15T08:28:28;15.13;;;13.60;;
15295;SDS011;7749;49.964;7.890;2022-11-15T08:30:56;17.60;;;13.80;;
15295;SDS011;7749;49.964;7.890;2022-11-15T08:33:24;17.77;;;13.37;;
15295;SDS011;7749;49.964;7.890;2022-11-15T08:35:51;16.47;;;13.63;;
15295;SDS011;7749;49.964;7.890;2022-11-15T08:38:19;14.00;;;11.97;;
15295;SDS011;7749;49.964;7.890;2022-11-15T08:40:47;13.97;;;11.53;;
15295;SDS011;7749;49.964;7.890;2022-11-15T08:43:14;14.07;;;12.23;;
15295;SDS011;7749;49.964;7.890;2022-11-15T08:45:42;18.70;;;12.67;;
15295;SDS011;7749;49.964;7.890;2022-11-15T08:48:10;14.30;;;11.67;;
15295;SDS011;7749;49.964;7.890;2022-11-15T08:50:37;22.37;;;15.17;;
15295;SDS011;7749;49.964;7.890;2022-11-15T08:53:06;19.47;;;15.67;;
15295;SDS011;7749;49.964;7.890;2022-11-15T08:55:36;16.47;;;12.67;;
15295;SDS011;7749;49.964;7.890;2022-11-15T08:58:04;20.10;;;13.87;;
15295;SDS011;7749;49.964;7.890;2022-11-15T09:00:32;23.43;;;18.57;;
15295;SDS011;7749;49.964;7.890;2022-11-15T09:03:03;26.20;;;18.03;;
15295;SDS011;7749;49.964;7.890;2022-11-15T09:05:35;21.33;;;16.73;;
15295;SDS011;7749;49.964;7.890;2022-11-15T09:08:03;21.20;;;16.87;;
15295;SDS011;7749;49.964;7.890;2022-11-15T09:10:51;20.37;;;14.93;;
15295;SDS011;7749;49.964;7.890;2022-11-15T09:13:19;18.80;;;14.83;;
15295;SDS011;7749;49.964;7.890;2022-11-15T09:15:46;17.07;;;14.03;;
15295;SDS011;7749;49.964;7.890;2022-11-15T09:18:14;17.33;;;12.93;;
15295;SDS011;7749;49.964;7.890;2022-11-15T09:20:42;14.40;;;12.90;;
15295;SDS011;7749;49.964;7.890;2022-11-15T09:23:09;16.13;;;13.10;;
15295;SDS011;7749;49.964;7.890;2022-11-15T09:25:37;15.37;;;13.03;;
15295;SDS011;7749;49.964;7.890;2022-11-15T09:28:05;13.97;;;11.43;;
15295;SDS011;7749;49.964;7.890;2022-11-15T09:30:34;14.97;;;12.17;;
15295;SDS011;7749;49.964;7.890;2022-11-15T09:33:08;14.57;;;12.73;;
15295;SDS011;7749;49.964;7.890;2022-11-15T09:35:39;14.63;;;13.03;;
15295;SDS011;7749;49.964;7.890;2022-11-15T09:38:08;14.63;;;13.17;;
15295;SDS011;7749;49.964;7.890;2022-11-15T09:40:36;14.57;;;13.07;;
15295;SDS011;7749;49.964;7.890;2022-11-15T09:48:51;17.43;;;14.53;;
15295;SDS011;7749;49.964;7.890;2022-11-15T09:56:51;17.43;;;14.63;;
15295;SDS011;7749;49.964;7.890;2022-11-15T10:05:16;20.77;;;14.87;;
15295;SDS011;7749;49.964;7.890;2022-11-15T10:10:49;16.93;;;14.63;;
15295;SDS011;7749;49.964;7.890;2022-11-15T10:13:43;16.43;;;13.23;;
15295;SDS011;7749;49.964;7.890;2022-11-15T10:24:42;19.80;;;15.37;;
15295;SDS011;7749;49.964;7.890;2022-11-15T10:27:16;19.43;;;15.57;;
15295;SDS011;7749;49.964;7.890;2022-11-15T10:29:48;21.57;;;16.47;;
15295;SDS011;7749;49.964;7.890;2022-11-15T10:32:18;19.97;;;15.33;;
15295;SDS011;7749;49.964;7.890;2022-11-15T10:34:47;18.40;;;14.63;;
15295;SDS011;7749;49.964;7.890;2022-11-15T10:37:30;15.93;;;13.83;;
15295;SDS011;7749;49.964;7.890;2022-11-15T10:40:02;20.53;;;13.57;;
15295;SDS011;7749;49.964;7.890;2022-11-15T10:42:31;15.30;;;12.67;;
15295;SDS011;7749;49.964;7.890;2022-11-15T10:44:59;16.10;;;13.07;;
15295;SDS011;7749;49.964;7.890;2022-11-15T10:47:28;19.37;;;14.60;;
15295;SDS011;7749;49.964;7.890;2022-11-15T10:50:07;19.07;;;14.07;;
15295;SDS011;7749;49.964;7.890;2022-11-15T10:52:54;16.63;;;12.83;;
15295;SDS011;7749;49.964;7.890;2022-11-15T10:55:23;14.60;;;13.03;;
15295;SDS011;7749;49.964;7.890;2022-11-15T10:58:04;17.83;;;13.23;;
15295;SDS011;7749;49.964;7.890;2022-11-15T11:00:46;13.43;;;11.90;;
15295;SDS011;7749;49.964;7.890;2022-11-15T11:03:35;15.43;;;10.57;;
15295;SDS011;7749;49.964;7.890;2022-11-15T11:06:10;13.23;;;11.07;;
15295;SDS011;7749;49.964;7.890;2022-11-15T11:08:40;12.53;;;10.13;;
15295;SDS011;7749;49.964;7.890;2022-11-15T11:11:22;12.20;;;9.80;;
15295;SDS011;7749;49.964;7.890;2022-11-15T11:13:50;10.20;;;9.20;;
15295;SDS011;7749;49.964;7.890;2022-11-15T11:16:23;11.23;;;8.83;;
15295;SDS011;7749;49.964;7.890;2022-11-15T11:19:13;10.83;;;8.77;;
15295;SDS011;7749;49.964;7.890;2022-11-15T11:36:09;15.25;;;8.27;;
15295;SDS011;7749;49.964;7.890;2022-11-15T11:46:59;9.25;;;7.40;;
15295;SDS011;7749;49.964;7.890;2022-11-15T12:00:49;8.93;;;6.82;;
15295;SDS011;7749;49.964;7.890;2022-11-15T12:06:09;11.07;;;7.63;;
15295;SDS011;7749;49.964;7.890;2022-11-15T12:11:51;12.47;;;8.07;;
15295;SDS011;7749;49.964;7.890;2022-11-15T12:17:10;11.90;;;7.50;;
15295;SDS011;7749;49.964;7.890;2022-11-15T12:19:39;11.23;;;7.30;;
15295;SDS011;7749;49.964;7.890;2022-11-15T12:22:16;9.63;;;7.50;;
15295;SDS011;7749;49.964;7.890;2022-11-15T12:24:51;11.13;;;7.20;;
15295;SDS011;7749;49.964;7.890;2022-11-15T12:27:33;8.20;;;7.40;;
15295;SDS011;7749;49.964;7.890;2022-11-15T12:30:17;11.13;;;7.73;;
15295;SDS011;7749;49.964;7.890;2022-11-15T12:35:26;13.10;;;7.93;;
15295;SDS011;7749;49.964;7.890;2022-11-15T12:37:58;9.60;;;7.67;;
15295;SDS011;7749;49.964;7.890;2022-11-15T12:40:26;11.57;;;7.60;;
15295;SDS011;7749;49.964;7.890;2022-11-15T12:45:50;15.13;;;8.50;;
15295;SDS011;7749;49.964;7.890;2022-11-15T12:59:38;8.00;;;6.60;;
15295;SDS011;7749;49.964;7.890;2022-11-15T13:01:58;8.05;;;6.50;;
15295;SDS011;7749;49.964;7.890;2022-11-15T13:04:28;6.97;;;5.95;;
15295;SDS011;7749;49.964;7.890;2022-11-15T13:07:04;7.13;;;5.88;;
15295;SDS011;7749;49.964;7.890;2022-11-15T13:12:08;8.43;;;6.07;;
15295;SDS011;7749;49.964;7.890;2022-11-15T13:22:27;6.97;;;6.20;;
15295;SDS011;7749;49.964;7.890;2022-11-15T13:28:10;6.83;;;5.93;;
15295;SDS011;7749;49.964;7.890;2022-11-15T13:33:53;8.47;;;6.37;;
15295;SDS011;7749;49.964;7.890;2022-11-15T13:36:29;8.27;;;5.63;;
15295;SDS011;7749;49.964;7.890;2022-11-15T13:39:01;13.77;;;6.97;;
15295;SDS011;7749;49.964;7.890;2022-11-15T13:41:53;10.20;;;6.40;;
15295;SDS011;7749;49.964;7.890;2022-11-15T13:44:22;9.33;;;6.20;;
15295;SDS011;7749;49.964;7.890;2022-11-15T13:47:01;17.60;;;7.10;;
15295;SDS011;7749;49.964;7.890;2022-11-15T13:49:42;9.60;;;6.23;;
15295;SDS011;7749;49.964;7.890;2022-11-15T13:52:11;12.03;;;6.23;;
15295;SDS011;7749;49.964;7.890;2022-11-15T13:54:56;7.83;;;6.43;;
15295;SDS011;7749;49.964;7.890;2022-11-15T13:57:26;7.03;;;6.03;;
15295;SDS011;7749;49.964;7.890;2022-11-15T14:00:00;9.33;;;6.20;;
15295;SDS011;7749;49.964;7.890;2022-11-15T14:02:31;12.63;;;7.53;;
15295;SDS011;7749;49.964;7.890;2022-11-15T14:05:17;7.77;;;6.83;;
15295;SDS011;7749;49.964;7.890;2022-11-15T14:08:05;7.63;;;6.30;;
15295;SDS011;7749;49.964;7.890;2022-11-15T14:10:42;7.03;;;6.40;;
15295;SDS011;7749;49.964;7.890;2022-11-15T14:13:25;6.90;;;6.20;;
15295;SDS011;7749;49.964;7.890;2022-11-15T14:15:54;7.47;;;6.30;;
15295;SDS011;7749;49.964;7.890;2022-11-15T14:18:50;7.90;;;7.10;;
15295;SDS011;7749;49.964;7.890;2022-11-15T14:21:19;8.20;;;6.70;;
15295;SDS011;7749;49.964;7.890;2022-11-15T14:23:47;8.63;;;6.17;;
15295;SDS011;7749;49.964;7.890;2022-11-15T14:26:26;8.57;;;6.13;;
15295;SDS011;7749;49.964;7.890;2022-11-15T14:28:54;8.97;;;6.90;;
15295;SDS011;7749;49.964;7.890;2022-11-15T14:31:22;8.50;;;7.13;;
15295;SDS011;7749;49.964;7.890;2022-11-15T14:33:50;8.00;;;6.50;;
15295;SDS011;7749;49.964;7.890;2022-11-15T14:36:18;7.73;;;6.20;;
15295;SDS011;7749;49.964;7.890;2022-11-15T14:38:47;7.10;;;6.43;;
15295;SDS011;7749;49.964;7.890;2022-11-15T14:41:19;8.57;;;6.80;;
15295;SDS011;7749;49.964;7.890;2022-11-15T14:43:49;12.10;;;6.90;;
15295;SDS011;7749;49.964;7.890;2022-11-15T14:46:18;9.20;;;6.67;;
15295;SDS011;7749;49.964;7.890;2022-11-15T14:48:46;11.10;;;6.47;;
15295;SDS011;7749;49.964;7.890;2022-11-15T14:51:14;7.93;;;6.03;;
15295;SDS011;7749;49.964;7.890;2022-11-15T14:53:44;10.60;;;6.40;;
15295;SDS011;7749;49.964;7.890;2022-11-15T14:56:12;9.50;;;6.70;;
15295;SDS011;7749;49.964;7.890;2022-11-15T14:58:40;7.10;;;6.20;;
15295;SDS011;7749;49.964;7.890;2022-11-15T15:01:20;8.30;;;6.30;;
15295;SDS011;7749;49.964;7.890;2022-11-15T15:03:50;8.77;;;6.10;;
15295;SDS011;7749;49.964;7.890;2022-11-15T15:06:19;7.40;;;5.87;;
15295;SDS011;7749;49.964;7.890;2022-11-15T15:08:47;8.50;;;6.43;;
15295;SDS011;7749;49.964;7.890;2022-11-15T15:11:29;8.57;;;7.00;;
15295;SDS011;7749;49.964;7.890;2022-11-15T15:13:57;9.27;;;6.50;;
15295;SDS011;7749;49.964;7.890;2022-11-15T15:16:28;8.63;;;6.33;;
15295;SDS011;7749;49.964;7.890;2022-11-15T15:18:55;8.03;;;6.47;;
15295;SDS011;7749;49.964;7.890;2022-11-15T15:21:27;7.03;;;6.33;;
15295;SDS011;7749;49.964;7.890;2022-11-15T15:24:03;7.33;;;6.57;;
15295;SDS011;7749;49.964;7.890;2022-11-15T15:26:31;7.87;;;6.50;;
15295;SDS011;7749;49.964;7.890;2022-11-15T15:29:03;9.00;;;7.33;;
15295;SDS011;7749;49.964;7.890;2022-11-15T15:31:31;9.33;;;6.60;;
15295;SDS011;7749;49.964;7.890;2022-11-15T15:34:00;8.67;;;7.00;;
15295;SDS011;7749;49.964;7.890;2022-11-15T15:36:28;7.73;;;6.93;;
15295;SDS011;7749;49.964;7.890;2022-11-15T15:38:55;9.40;;;6.93;;
15295;SDS011;7749;49.964;7.890;2022-11-15T15:41:23;9.93;;;6.97;;
15295;SDS011;7749;49.964;7.890;2022-11-15T15:43:51;8.63;;;7.10;;
15295;SDS011;7749;49.964;7.890;2022-11-15T15:46:19;10.07;;;7.00;;
15295;SDS011;7749;49.964;7.890;2022-11-15T15:48:47;9.67;;;7.17;;
15295;SDS011;7749;49.964;7.890;2022-11-15T15:51:15;7.60;;;6.80;;
15295;SDS011;7749;49.964;7.890;2022-11-15T15:53:47;9.10;;;7.33;;
15295;SDS011;7749;49.964;7.890;2022-11-15T15:59:07;8.80;;;7.57;;
15295;SDS011;7749;49.964;7.890;2022-11-15T16:01:35;9.60;;;7.70;;
15295;SDS011;7749;49.964;7.890;2022-11-15T16:04:03;9.03;;;6.53;;
15295;SDS011;7749;49.964;7.890;2022-11-15T16:09:02;8.00;;;6.20;;
15295;SDS011;7749;49.964;7.890;2022-11-15T16:11:46;9.10;;;6.50;;
15295;SDS011;7749;49.964;7.890;2022-11-15T16:14:14;8.40;;;6.80;;
15295;SDS011;7749;49.964;7.890;2022-11-15T16:16:42;7.73;;;6.83;;
15295;SDS011;7749;49.964;7.890;2022-11-15T16:19:10;10.20;;;6.90;;
15295;SDS011;7749;49.964;7.890;2022-11-15T16:21:39;9.13;;;7.50;;
15295;SDS011;7749;49.964;7.890;2022-11-15T16:24:17;7.43;;;6.50;;
15295;SDS011;7749;49.964;7.890;2022-11-15T16:26:46;7.60;;;6.30;;
15295;SDS011;7749;49.964;7.890;2022-11-15T16:29:15;6.67;;;5.97;;
15295;SDS011;7749;49.964;7.890;2022-11-15T16:31:50;7.93;;;6.37;;
15295;SDS011;7749;49.964;7.890;2022-11-15T16:34:19;6.90;;;6.23;;
15295;SDS011;7749;49.964;7.890;2022-11-15T16:36:47;7.23;;;6.50;;
15295;SDS011;7749;49.964;7.890;2022-11-15T16:39:15;8.87;;;6.77;;
15295;SDS011;7749;49.964;7.890;2022-11-15T16:41:45;8.87;;;7.13;;
15295;SDS011;7749;49.964;7.890;2022-11-15T16:44:13;8.53;;;6.80;;
15295;SDS011;7749;49.964;7.890;2022-11-15T16:46:41;7.20;;;6.50;;
15295;SDS011;7749;49.964;7.890;2022-11-15T16:49:13;8.13;;;6.70;;
15295;SDS011;7749;49.964;7.890;2022-11-15T16:51:41;7.17;;;6.47;;
15295;SDS011;7749;49.964;7.890;2022-11-15T16:54:11;8.53;;;6.80;;
15295;SDS011;7749;49.964;7.890;2022-11-15T16:56:39;7.47;;;6.57;;
15295;SDS011;7749;49.964;7.890;2022-11-15T16:59:10;8.70;;;6.60;;
15295;SDS011;7749;49.964;7.890;2022-11-15T17:01:43;9.03;;;6.70;;
15295;SDS011;7749;49.964;7.890;2022-11-15T17:04:17;7.00;;;6.20;;
15295;SDS011;7749;49.964;7.890;2022-11-15T17:06:46;7.80;;;6.47;;
15295;SDS011;7749;49.964;7.890;2022-11-15T17:09:18;9.90;;;7.47;;
15295;SDS011;7749;49.964;7.890;2022-11-15T17:11:49;8.80;;;6.70;;
15295;SDS011;7749;49.964;7.890;2022-11-15T17:14:17;8.17;;;6.83;;
15295;SDS011;7749;49.964;7.890;2022-11-15T17:16:45;11.83;;;7.20;;
15295;SDS011;7749;49.964;7.890;2022-11-15T17:19:19;8.30;;;6.93;;
15295;SDS011;7749;49.964;7.890;2022-11-15T17:21:47;9.37;;;7.37;;
15295;SDS011;7749;49.964;7.890;2022-11-15T17:24:16;8.00;;;6.87;;
15295;SDS011;7749;49.964;7.890;2022-11-15T17:26:44;9.03;;;6.80;;
15295;SDS011;7749;49.964;7.890;2022-11-15T17:29:12;7.60;;;6.63;;